Terminal Aerodrome Forecast
Issued by NWS

Home | Current Version | Previous Version | Graphics & Text | Print | Product List | Glossary On
Versions: 1 2 3 4 5 6 7 8 9 10 11 12 13 14 15 16 17 18 19 20
000
FTUS43 KTOP 262324
TAFMHK
TAF
KMHK 262324Z 2700/2724 18005KT P6SM SCT250
     FM271400 18009KT P6SM SCT100
     FM271900 17013KT P6SM SCT200=

USA.gov is the U.S. government's official web portal to all federal, state and local government web resources and services.